Milwaukee, Wisconsin
Traffic Map
Current Weather Conditions
Milwaukee, Wisconsin
Broken Clouds
Broken Clouds
22°
Feels Like: 22°
Wind Chill: 22° Ceiling: 11000
Heat Index: 22° Visibility: 10mi
Dew Point: 16° Wind: 13mph
Humidity: 68% Direction: 210° (SSW)
Pressure: 30.02in Gusts: 0mph
Raw Report DataKMKE 291352Z 21011KT 10SM SCT045 BKN110 BKN200 22/16 A3002 RMK AO2 SLP164 T02220161
Traffic Incident Summary
Active as of:
Severity:
Category:
InformationThere was an issue retrieving the traffic information for this location. Please try a different location or try again shortly.
Advertisements
Track Severe Weather on mobile